sensor_id;sensor_type;location;lat;lon;timestamp;pressure;altitude;pressure_sealevel;temperature;humidity
9774;BME280;4926;42.670;23.316;2024-03-06T00:02:23;94298.00;;;6.42;71.19
9774;BME280;4926;42.670;23.316;2024-03-06T00:04:48;94302.53;;;6.29;71.22
9774;BME280;4926;42.670;23.316;2024-03-06T00:07:17;94294.56;;;6.43;71.65
9774;BME280;4926;42.670;23.316;2024-03-06T00:09:42;94301.59;;;6.48;70.72
9774;BME280;4926;42.670;23.316;2024-03-06T00:12:08;94297.78;;;6.33;71.31
9774;BME280;4926;42.670;23.316;2024-03-06T00:14:34;94294.50;;;6.41;70.14
9774;BME280;4926;42.670;23.316;2024-03-06T00:17:02;94298.53;;;6.36;71.50
9774;BME280;4926;42.670;23.316;2024-03-06T00:19:30;94291.78;;;6.43;69.78
9774;BME280;4926;42.670;23.316;2024-03-06T00:21:55;94295.22;;;6.42;70.42
9774;BME280;4926;42.670;23.316;2024-03-06T00:24:21;94288.28;;;6.40;70.02
9774;BME280;4926;42.670;23.316;2024-03-06T00:26:48;94289.53;;;6.35;70.78
9774;BME280;4926;42.670;23.316;2024-03-06T00:29:13;94291.50;;;6.31;70.68
9774;BME280;4926;42.670;23.316;2024-03-06T00:31:43;94295.00;;;6.33;71.33
9774;BME280;4926;42.670;23.316;2024-03-06T00:34:10;94297.66;;;6.27;71.10
9774;BME280;4926;42.670;23.316;2024-03-06T00:36:37;94296.38;;;6.02;71.20
9774;BME280;4926;42.670;23.316;2024-03-06T00:39:03;94302.25;;;6.17;71.60
9774;BME280;4926;42.670;23.316;2024-03-06T00:41:33;94295.31;;;6.18;70.74
9774;BME280;4926;42.670;23.316;2024-03-06T00:43:59;94298.19;;;6.22;71.32
9774;BME280;4926;42.670;23.316;2024-03-06T00:46:25;94301.78;;;6.26;70.17
9774;BME280;4926;42.670;23.316;2024-03-06T00:48:50;94301.03;;;6.24;70.28
9774;BME280;4926;42.670;23.316;2024-03-06T00:51:15;94292.13;;;6.27;71.50
9774;BME280;4926;42.670;23.316;2024-03-06T00:53:41;94297.50;;;6.21;71.23
9774;BME280;4926;42.670;23.316;2024-03-06T00:56:07;94291.97;;;6.21;71.09
9774;BME280;4926;42.670;23.316;2024-03-06T00:58:32;94289.25;;;6.23;71.91
9774;BME280;4926;42.670;23.316;2024-03-06T01:00:58;94291.47;;;6.29;70.68
9774;BME280;4926;42.670;23.316;2024-03-06T01:03:24;94301.69;;;6.22;70.99
9774;BME280;4926;42.670;23.316;2024-03-06T01:05:50;94303.03;;;6.21;70.82
9774;BME280;4926;42.670;23.316;2024-03-06T01:08:18;94299.47;;;6.17;70.93
9774;BME280;4926;42.670;23.316;2024-03-06T01:10:43;94299.47;;;6.17;71.85
9774;BME280;4926;42.670;23.316;2024-03-06T01:13:09;94311.81;;;6.12;72.08
9774;BME280;4926;42.670;23.316;2024-03-06T01:15:36;94315.13;;;6.06;72.20
9774;BME280;4926;42.670;23.316;2024-03-06T01:18:02;94307.47;;;6.04;71.48
9774;BME280;4926;42.670;23.316;2024-03-06T01:20:29;94305.41;;;6.05;72.31
9774;BME280;4926;42.670;23.316;2024-03-06T01:22:54;94301.78;;;5.98;71.38
9774;BME280;4926;42.670;23.316;2024-03-06T01:25:20;94298.97;;;5.96;72.71
9774;BME280;4926;42.670;23.316;2024-03-06T01:27:48;94303.19;;;5.99;72.19
9774;BME280;4926;42.670;23.316;2024-03-06T01:30:13;94305.31;;;6.01;72.79
9774;BME280;4926;42.670;23.316;2024-03-06T01:32:39;94293.53;;;6.00;71.83
9774;BME280;4926;42.670;23.316;2024-03-06T01:35:04;94301.56;;;5.90;72.96
9774;BME280;4926;42.670;23.316;2024-03-06T01:37:30;94298.34;;;5.72;72.45
9774;BME280;4926;42.670;23.316;2024-03-06T01:39:56;94296.41;;;5.79;71.81
9774;BME280;4926;42.670;23.316;2024-03-06T01:42:21;94296.88;;;5.69;73.35
9774;BME280;4926;42.670;23.316;2024-03-06T01:44:47;94296.28;;;5.47;74.50
9774;BME280;4926;42.670;23.316;2024-03-06T01:47:12;94287.75;;;5.64;73.19
9774;BME280;4926;42.670;23.316;2024-03-06T01:49:38;94306.25;;;5.58;72.84
9774;BME280;4926;42.670;23.316;2024-03-06T01:52:03;94300.97;;;5.68;73.66
9774;BME280;4926;42.670;23.316;2024-03-06T01:54:30;94297.00;;;5.47;73.52
9774;BME280;4926;42.670;23.316;2024-03-06T01:56:57;94294.31;;;5.25;75.24
9774;BME280;4926;42.670;23.316;2024-03-06T01:59:25;94288.78;;;5.25;73.87
9774;BME280;4926;42.670;23.316;2024-03-06T02:01:54;94296.09;;;5.15;76.01
9774;BME280;4926;42.670;23.316;2024-03-06T02:04:20;94300.63;;;5.04;75.73
9774;BME280;4926;42.670;23.316;2024-03-06T02:06:46;94302.56;;;4.99;76.73
9774;BME280;4926;42.670;23.316;2024-03-06T02:09:12;94303.34;;;5.02;76.27
9774;BME280;4926;42.670;23.316;2024-03-06T02:11:40;94307.16;;;5.15;75.00
9774;BME280;4926;42.670;23.316;2024-03-06T02:14:05;94302.44;;;5.19;76.08
9774;BME280;4926;42.670;23.316;2024-03-06T02:16:35;94307.00;;;5.34;74.23
9774;BME280;4926;42.670;23.316;2024-03-06T02:19:00;94303.16;;;5.46;73.68
9774;BME280;4926;42.670;23.316;2024-03-06T02:21:26;94309.22;;;5.40;73.80
9774;BME280;4926;42.670;23.316;2024-03-06T02:23:52;94310.91;;;5.51;73.30
9774;BME280;4926;42.670;23.316;2024-03-06T02:26:18;94319.97;;;5.54;74.06
9774;BME280;4926;42.670;23.316;2024-03-06T02:28:51;94320.09;;;5.58;73.34
9774;BME280;4926;42.670;23.316;2024-03-06T02:31:17;94327.75;;;5.35;74.84
9774;BME280;4926;42.670;23.316;2024-03-06T02:33:44;94332.00;;;5.39;73.60
9774;BME280;4926;42.670;23.316;2024-03-06T02:36:10;94328.13;;;5.50;74.04
9774;BME280;4926;42.670;23.316;2024-03-06T02:38:36;94330.81;;;5.46;74.17
9774;BME280;4926;42.670;23.316;2024-03-06T02:41:02;94324.19;;;5.31;73.08
9774;BME280;4926;42.670;23.316;2024-03-06T02:43:28;94329.81;;;5.35;73.14
9774;BME280;4926;42.670;23.316;2024-03-06T02:45:53;94328.31;;;5.30;74.00
9774;BME280;4926;42.670;23.316;2024-03-06T02:48:19;94327.59;;;5.29;72.92
9774;BME280;4926;42.670;23.316;2024-03-06T02:50:44;94329.53;;;5.25;73.84
9774;BME280;4926;42.670;23.316;2024-03-06T02:53:13;94328.56;;;5.14;73.83
9774;BME280;4926;42.670;23.316;2024-03-06T02:55:39;94323.88;;;5.21;73.15
9774;BME280;4926;42.670;23.316;2024-03-06T02:58:05;94327.41;;;5.23;73.33
9774;BME280;4926;42.670;23.316;2024-03-06T03:00:30;94329.56;;;5.01;74.14
9774;BME280;4926;42.670;23.316;2024-03-06T03:02:57;94331.97;;;4.89;73.51
9774;BME280;4926;42.670;23.316;2024-03-06T03:05:23;94330.84;;;4.98;74.17
9774;BME280;4926;42.670;23.316;2024-03-06T03:07:49;94332.31;;;5.01;73.93
9774;BME280;4926;42.670;23.316;2024-03-06T03:10:15;94331.03;;;5.04;73.81
9774;BME280;4926;42.670;23.316;2024-03-06T03:12:41;94331.84;;;5.09;73.31
9774;BME280;4926;42.670;23.316;2024-03-06T03:15:07;94339.72;;;5.18;73.50
9774;BME280;4926;42.670;23.316;2024-03-06T03:17:33;94328.75;;;5.22;73.14
9774;BME280;4926;42.670;23.316;2024-03-06T03:20:01;94330.88;;;5.24;72.17
9774;BME280;4926;42.670;23.316;2024-03-06T03:22:36;94335.72;;;5.23;71.79
9774;BME280;4926;42.670;23.316;2024-03-06T03:25:02;94346.59;;;5.17;72.75
9774;BME280;4926;42.670;23.316;2024-03-06T03:27:27;94342.19;;;5.08;73.28
9774;BME280;4926;42.670;23.316;2024-03-06T03:29:53;94342.25;;;5.10;72.89
9774;BME280;4926;42.670;23.316;2024-03-06T03:32:18;94341.78;;;5.18;72.95
9774;BME280;4926;42.670;23.316;2024-03-06T03:34:44;94349.81;;;5.10;72.15
9774;BME280;4926;42.670;23.316;2024-03-06T03:37:09;94340.41;;;4.95;73.44
9774;BME280;4926;42.670;23.316;2024-03-06T03:39:35;94340.81;;;4.85;73.87
9774;BME280;4926;42.670;23.316;2024-03-06T03:42:00;94347.81;;;4.88;73.69
9774;BME280;4926;42.670;23.316;2024-03-06T03:44:26;94347.22;;;4.92;72.98
9774;BME280;4926;42.670;23.316;2024-03-06T03:46:51;94345.28;;;4.96;73.21
9774;BME280;4926;42.670;23.316;2024-03-06T03:49:16;94345.50;;;5.03;73.25
9774;BME280;4926;42.670;23.316;2024-03-06T03:51:42;94345.41;;;5.01;73.56
9774;BME280;4926;42.670;23.316;2024-03-06T03:54:07;94350.41;;;5.06;72.63
9774;BME280;4926;42.670;23.316;2024-03-06T03:56:34;94350.59;;;5.12;72.97
9774;BME280;4926;42.670;23.316;2024-03-06T03:59:00;94347.19;;;5.14;71.72
9774;BME280;4926;42.670;23.316;2024-03-06T04:01:26;94349.44;;;5.19;73.11
9774;BME280;4926;42.670;23.316;2024-03-06T04:03:51;94352.19;;;5.19;72.14
9774;BME280;4926;42.670;23.316;2024-03-06T04:06:17;94354.84;;;5.15;72.20
9774;BME280;4926;42.670;23.316;2024-03-06T04:08:43;94359.69;;;4.93;73.79
9774;BME280;4926;42.670;23.316;2024-03-06T04:11:08;94357.41;;;4.85;73.12
9774;BME280;4926;42.670;23.316;2024-03-06T04:13:37;94362.28;;;4.87;73.90
9774;BME280;4926;42.670;23.316;2024-03-06T04:16:04;94363.44;;;4.80;73.60
9774;BME280;4926;42.670;23.316;2024-03-06T04:18:40;94368.09;;;4.73;72.99
9774;BME280;4926;42.670;23.316;2024-03-06T04:21:05;94371.94;;;4.64;73.83
9774;BME280;4926;42.670;23.316;2024-03-06T04:23:32;94380.16;;;4.40;75.38
9774;BME280;4926;42.670;23.316;2024-03-06T04:25:58;94372.56;;;4.19;76.24
9774;BME280;4926;42.670;23.316;2024-03-06T04:28:24;94378.53;;;4.11;83.96
9774;BME280;4926;42.670;23.316;2024-03-06T04:30:49;94389.06;;;4.39;83.22
9774;BME280;4926;42.670;23.316;2024-03-06T04:33:15;94384.59;;;4.71;76.82
9774;BME280;4926;42.670;23.316;2024-03-06T04:35:41;94377.94;;;5.02;79.87
9774;BME280;4926;42.670;23.316;2024-03-06T04:38:07;94390.47;;;5.29;74.33
9774;BME280;4926;42.670;23.316;2024-03-06T04:40:33;94387.69;;;5.29;73.19
9774;BME280;4926;42.670;23.316;2024-03-06T04:43:00;94388.50;;;5.33;72.56
9774;BME280;4926;42.670;23.316;2024-03-06T04:45:26;94391.34;;;5.35;73.04
9774;BME280;4926;42.670;23.316;2024-03-06T04:47:51;94385.72;;;5.31;71.90
9774;BME280;4926;42.670;23.316;2024-03-06T04:50:17;94391.06;;;5.25;72.05
9774;BME280;4926;42.670;23.316;2024-03-06T04:52:45;94393.69;;;5.21;72.16
9774;BME280;4926;42.670;23.316;2024-03-06T04:55:17;94404.16;;;5.25;72.60
9774;BME280;4926;42.670;23.316;2024-03-06T04:57:48;94406.00;;;5.16;71.89
9774;BME280;4926;42.670;23.316;2024-03-06T05:00:14;94405.34;;;5.18;71.15
9774;BME280;4926;42.670;23.316;2024-03-06T05:02:43;94404.03;;;5.21;71.56
9774;BME280;4926;42.670;23.316;2024-03-06T05:05:09;94400.53;;;5.18;71.82
9774;BME280;4926;42.670;23.316;2024-03-06T05:07:35;94409.25;;;5.32;75.32
9774;BME280;4926;42.670;23.316;2024-03-06T05:10:00;94401.81;;;5.39;72.05
9774;BME280;4926;42.670;23.316;2024-03-06T05:12:29;94406.69;;;5.41;70.79
9774;BME280;4926;42.670;23.316;2024-03-06T05:14:55;94408.53;;;5.32;71.21
9774;BME280;4926;42.670;23.316;2024-03-06T05:17:21;94410.47;;;5.27;71.32
9774;BME280;4926;42.670;23.316;2024-03-06T05:19:47;94407.69;;;5.27;71.85
9774;BME280;4926;42.670;23.316;2024-03-06T05:22:14;94402.97;;;5.08;71.66
9774;BME280;4926;42.670;23.316;2024-03-06T05:24:41;94409.28;;;5.11;71.01
9774;BME280;4926;42.670;23.316;2024-03-06T05:27:06;94410.81;;;5.16;72.78
9774;BME280;4926;42.670;23.316;2024-03-06T05:29:33;94407.69;;;5.27;71.22
9774;BME280;4926;42.670;23.316;2024-03-06T05:31:58;94411.53;;;5.40;70.25
9774;BME280;4926;42.670;23.316;2024-03-06T05:34:24;94412.44;;;5.49;70.02
9774;BME280;4926;42.670;23.316;2024-03-06T05:36:50;94413.94;;;5.52;69.57
9774;BME280;4926;42.670;23.316;2024-03-06T05:39:15;94423.63;;;5.53;70.38
9774;BME280;4926;42.670;23.316;2024-03-06T05:41:43;94424.53;;;5.59;70.97
9774;BME280;4926;42.670;23.316;2024-03-06T05:44:12;94427.94;;;5.58;69.76
9774;BME280;4926;42.670;23.316;2024-03-06T05:46:40;94422.41;;;5.58;69.69
9774;BME280;4926;42.670;23.316;2024-03-06T05:49:06;94423.56;;;5.51;70.36
9774;BME280;4926;42.670;23.316;2024-03-06T05:51:31;94435.16;;;5.69;70.60
9774;BME280;4926;42.670;23.316;2024-03-06T05:53:57;94433.97;;;5.76;69.16
9774;BME280;4926;42.670;23.316;2024-03-06T05:56:22;94434.16;;;5.82;70.04
9774;BME280;4926;42.670;23.316;2024-03-06T05:58:48;94444.06;;;5.89;69.89
9774;BME280;4926;42.670;23.316;2024-03-06T06:01:35;94435.31;;;5.99;69.03
9774;BME280;4926;42.670;23.316;2024-03-06T06:04:04;94438.81;;;5.99;69.42
9774;BME280;4926;42.670;23.316;2024-03-06T06:06:32;94440.16;;;5.98;69.50
9774;BME280;4926;42.670;23.316;2024-03-06T06:08:58;94443.13;;;6.07;69.37
9774;BME280;4926;42.670;23.316;2024-03-06T06:11:26;94438.94;;;6.05;67.96
9774;BME280;4926;42.670;23.316;2024-03-06T06:13:53;94442.44;;;6.06;67.79
9774;BME280;4926;42.670;23.316;2024-03-06T06:16:18;94451.06;;;6.18;69.08
9774;BME280;4926;42.670;23.316;2024-03-06T06:18:50;94448.97;;;6.17;69.67
9774;BME280;4926;42.670;23.316;2024-03-06T06:21:15;94447.69;;;6.22;69.04
9774;BME280;4926;42.670;23.316;2024-03-06T06:23:41;94452.09;;;6.31;69.94
9774;BME280;4926;42.670;23.316;2024-03-06T06:26:08;94449.97;;;6.29;68.58
9774;BME280;4926;42.670;23.316;2024-03-06T06:28:41;94451.09;;;6.46;67.19
9774;BME280;4926;42.670;23.316;2024-03-06T06:31:07;94448.53;;;6.54;67.33
9774;BME280;4926;42.670;23.316;2024-03-06T06:33:35;94440.53;;;6.66;66.72
9774;BME280;4926;42.670;23.316;2024-03-06T06:36:00;94449.19;;;6.81;65.13
9774;BME280;4926;42.670;23.316;2024-03-06T06:38:26;94448.06;;;6.92;65.02
9774;BME280;4926;42.670;23.316;2024-03-06T06:40:51;94443.38;;;6.98;65.49
9774;BME280;4926;42.670;23.316;2024-03-06T06:43:17;94436.09;;;7.13;65.05
9774;BME280;4926;42.670;23.316;2024-03-06T06:45:43;94441.16;;;7.23;66.14
9774;BME280;4926;42.670;23.316;2024-03-06T06:48:08;94438.00;;;7.36;65.43
9774;BME280;4926;42.670;23.316;2024-03-06T06:50:35;94438.38;;;7.53;63.72
9774;BME280;4926;42.670;23.316;2024-03-06T06:53:00;94445.72;;;7.40;63.61
9774;BME280;4926;42.670;23.316;2024-03-06T06:55:26;94453.44;;;7.43;63.06
9774;BME280;4926;42.670;23.316;2024-03-06T06:57:52;94457.03;;;7.50;64.28
9774;BME280;4926;42.670;23.316;2024-03-06T07:00:18;94458.28;;;7.77;63.71
9774;BME280;4926;42.670;23.316;2024-03-06T07:02:44;94456.31;;;7.81;62.15
9774;BME280;4926;42.670;23.316;2024-03-06T07:05:10;94461.41;;;7.93;61.71
9774;BME280;4926;42.670;23.316;2024-03-06T07:07:36;94455.94;;;7.97;62.08
9774;BME280;4926;42.670;23.316;2024-03-06T07:10:03;94458.25;;;8.09;62.07
9774;BME280;4926;42.670;23.316;2024-03-06T07:12:30;94452.19;;;8.18;61.86
9774;BME280;4926;42.670;23.316;2024-03-06T07:14:56;94456.47;;;8.24;61.51
9774;BME280;4926;42.670;23.316;2024-03-06T07:17:22;94455.97;;;8.33;61.49
9774;BME280;4926;42.670;23.316;2024-03-06T07:19:48;94458.41;;;8.53;62.70
9774;BME280;4926;42.670;23.316;2024-03-06T07:22:14;94454.53;;;8.70;61.42
9774;BME280;4926;42.670;23.316;2024-03-06T07:24:40;94452.03;;;8.86;60.68
9774;BME280;4926;42.670;23.316;2024-03-06T07:27:06;94460.88;;;8.75;61.61
9774;BME280;4926;42.670;23.316;2024-03-06T07:29:34;94449.94;;;8.85;60.08
9774;BME280;4926;42.670;23.316;2024-03-06T07:32:03;94452.00;;;8.84;60.37
9774;BME280;4926;42.670;23.316;2024-03-06T07:34:32;94453.78;;;9.08;59.73
9774;BME280;4926;42.670;23.316;2024-03-06T07:36:58;94455.47;;;9.25;59.16
9774;BME280;4926;42.670;23.316;2024-03-06T07:39:27;94458.50;;;9.43;59.47
9774;BME280;4926;42.670;23.316;2024-03-06T07:41:53;94449.63;;;9.57;58.52
9774;BME280;4926;42.670;23.316;2024-03-06T07:44:19;94446.41;;;9.75;58.58
9774;BME280;4926;42.670;23.316;2024-03-06T07:46:45;94456.56;;;10.06;57.62
9774;BME280;4926;42.670;23.316;2024-03-06T07:49:11;94455.56;;;10.40;56.59
9774;BME280;4926;42.670;23.316;2024-03-06T07:51:36;94454.41;;;10.61;55.18
9774;BME280;4926;42.670;23.316;2024-03-06T07:54:02;94464.50;;;10.96;54.51
9774;BME280;4926;42.670;23.316;2024-03-06T07:56:29;94449.38;;;11.22;53.73
9774;BME280;4926;42.670;23.316;2024-03-06T07:58:55;94458.56;;;11.34;52.93
9774;BME280;4926;42.670;23.316;2024-03-06T08:01:21;94455.06;;;11.34;52.95
9774;BME280;4926;42.670;23.316;2024-03-06T08:03:47;94455.13;;;11.44;52.16
9774;BME280;4926;42.670;23.316;2024-03-06T08:06:12;94457.78;;;11.28;52.33
9774;BME280;4926;42.670;23.316;2024-03-06T08:08:43;94460.72;;;11.46;52.63
9774;BME280;4926;42.670;23.316;2024-03-06T08:11:13;94463.94;;;11.12;52.47
9774;BME280;4926;42.670;23.316;2024-03-06T08:13:39;94470.22;;;11.09;54.15
9774;BME280;4926;42.670;23.316;2024-03-06T08:16:05;94475.91;;;11.23;53.25
9774;BME280;4926;42.670;23.316;2024-03-06T08:18:32;94467.75;;;11.55;52.34
9774;BME280;4926;42.670;23.316;2024-03-06T08:20:57;94471.94;;;11.54;51.64
9774;BME280;4926;42.670;23.316;2024-03-06T08:23:23;94471.44;;;11.80;52.08
9774;BME280;4926;42.670;23.316;2024-03-06T08:25:50;94456.81;;;11.86;51.35
9774;BME280;4926;42.670;23.316;2024-03-06T08:28:15;94473.03;;;12.16;50.19
9774;BME280;4926;42.670;23.316;2024-03-06T08:30:41;94465.34;;;12.22;49.75
9774;BME280;4926;42.670;23.316;2024-03-06T08:33:07;94465.44;;;12.42;48.79
9774;BME280;4926;42.670;23.316;2024-03-06T08:35:32;94461.28;;;12.54;49.08
9774;BME280;4926;42.670;23.316;2024-03-06T08:38:02;94461.34;;;12.82;47.66
9774;BME280;4926;42.670;23.316;2024-03-06T08:40:29;94460.59;;;12.55;48.22
9774;BME280;4926;42.670;23.316;2024-03-06T08:42:54;94471.06;;;12.51;49.26
9774;BME280;4926;42.670;23.316;2024-03-06T08:45:20;94463.47;;;12.96;48.05
9774;BME280;4926;42.670;23.316;2024-03-06T08:47:47;94469.13;;;13.48;47.18
9774;BME280;4926;42.670;23.316;2024-03-06T08:50:14;94463.44;;;14.03;45.30
9774;BME280;4926;42.670;23.316;2024-03-06T08:52:39;94465.56;;;14.03;44.25
9774;BME280;4926;42.670;23.316;2024-03-06T08:55:06;94462.72;;;14.11;44.15
9774;BME280;4926;42.670;23.316;2024-03-06T08:57:36;94459.09;;;14.49;43.84
9774;BME280;4926;42.670;23.316;2024-03-06T09:00:03;94465.25;;;14.76;42.88
9774;BME280;4926;42.670;23.316;2024-03-06T09:02:29;94468.59;;;15.05;41.97
9774;BME280;4926;42.670;23.316;2024-03-06T09:04:55;94471.34;;;15.15;42.07
9774;BME280;4926;42.670;23.316;2024-03-06T09:07:20;94470.78;;;14.94;41.53
9774;BME280;4926;42.670;23.316;2024-03-06T09:09:52;94467.69;;;15.33;41.86
9774;BME280;4926;42.670;23.316;2024-03-06T09:12:17;94460.66;;;15.36;40.97
9774;BME280;4926;42.670;23.316;2024-03-06T09:14:43;94471.06;;;15.55;41.24
9774;BME280;4926;42.670;23.316;2024-03-06T09:17:10;94475.16;;;15.71;40.13
9774;BME280;4926;42.670;23.316;2024-03-06T09:19:40;94469.84;;;16.10;39.76
9774;BME280;4926;42.670;23.316;2024-03-06T09:22:08;94471.97;;;16.09;39.41
9774;BME280;4926;42.670;23.316;2024-03-06T09:24:34;94464.00;;;15.60;39.88
9774;BME280;4926;42.670;23.316;2024-03-06T09:27:04;94461.22;;;15.56;40.53
9774;BME280;4926;42.670;23.316;2024-03-06T09:29:30;94462.97;;;15.97;40.42
9774;BME280;4926;42.670;23.316;2024-03-06T09:31:55;94471.94;;;16.13;40.03
9774;BME280;4926;42.670;23.316;2024-03-06T09:34:21;94470.97;;;16.37;39.04
9774;BME280;4926;42.670;23.316;2024-03-06T09:36:48;94458.75;;;16.57;38.19
9774;BME280;4926;42.670;23.316;2024-03-06T09:39:23;94464.91;;;16.74;37.51
9774;BME280;4926;42.670;23.316;2024-03-06T09:41:59;94468.94;;;17.38;36.18
9774;BME280;4926;42.670;23.316;2024-03-06T09:44:27;94466.19;;;17.77;34.78
9774;BME280;4926;42.670;23.316;2024-03-06T09:46:52;94461.81;;;17.86;34.85
9774;BME280;4926;42.670;23.316;2024-03-06T09:49:19;94452.00;;;18.22;33.83
9774;BME280;4926;42.670;23.316;2024-03-06T09:51:47;94459.69;;;18.63;34.08
9774;BME280;4926;42.670;23.316;2024-03-06T09:54:15;94458.28;;;18.25;33.64
9774;BME280;4926;42.670;23.316;2024-03-06T09:56:44;94449.22;;;17.81;33.85
9774;BME280;4926;42.670;23.316;2024-03-06T09:59:14;94456.00;;;17.53;34.99
9774;BME280;4926;42.670;23.316;2024-03-06T10:02:00;94446.22;;;17.91;34.51
9774;BME280;4926;42.670;23.316;2024-03-06T10:04:29;94438.88;;;18.06;33.40
9774;BME280;4926;42.670;23.316;2024-03-06T10:06:59;94443.19;;;18.75;50.24
9774;BME280;4926;42.670;23.316;2024-03-06T10:09:25;94437.88;;;19.23;43.76
9774;BME280;4926;42.670;23.316;2024-03-06T10:11:51;94432.66;;;18.72;32.41
9774;BME280;4926;42.670;23.316;2024-03-06T10:14:22;94430.16;;;18.91;31.80
9774;BME280;4926;42.670;23.316;2024-03-06T10:17:06;94427.97;;;18.93;31.59
9774;BME280;4926;42.670;23.316;2024-03-06T10:19:34;94423.16;;;18.88;30.68
9774;BME280;4926;42.670;23.316;2024-03-06T10:22:00;94431.06;;;18.46;31.70
9774;BME280;4926;42.670;23.316;2024-03-06T10:24:29;94419.41;;;18.64;31.94
9774;BME280;4926;42.670;23.316;2024-03-06T10:26:56;94426.41;;;18.67;30.94
9774;BME280;4926;42.670;23.316;2024-03-06T10:29:24;94421.97;;;18.76;31.30
9774;BME280;4926;42.670;23.316;2024-03-06T10:31:58;94416.41;;;19.05;31.20
9774;BME280;4926;42.670;23.316;2024-03-06T10:34:25;94415.03;;;19.33;30.66
9774;BME280;4926;42.670;23.316;2024-03-06T10:36:54;94418.34;;;19.73;28.99
9774;BME280;4926;42.670;23.316;2024-03-06T10:39:19;94405.91;;;19.89;29.09
9774;BME280;4926;42.670;23.316;2024-03-06T10:41:46;94405.59;;;20.01;29.02
9774;BME280;4926;42.670;23.316;2024-03-06T10:44:16;94408.09;;;20.13;28.18
9774;BME280;4926;42.670;23.316;2024-03-06T10:46:44;94400.75;;;19.68;28.94
9774;BME280;4926;42.670;23.316;2024-03-06T10:49:12;94398.22;;;19.85;29.36
9774;BME280;4926;42.670;23.316;2024-03-06T10:51:43;94399.16;;;19.46;29.28
9774;BME280;4926;42.670;23.316;2024-03-06T10:54:11;94381.28;;;19.56;28.87
9774;BME280;4926;42.670;23.316;2024-03-06T10:56:41;94386.56;;;19.41;29.05
9774;BME280;4926;42.670;23.316;2024-03-06T10:59:10;94379.13;;;19.28;30.14
9774;BME280;4926;42.670;23.316;2024-03-06T11:01:39;94373.06;;;19.15;30.41
9774;BME280;4926;42.670;23.316;2024-03-06T11:04:05;94363.94;;;18.82;30.23
9774;BME280;4926;42.670;23.316;2024-03-06T11:06:31;94367.56;;;18.78;30.53
9774;BME280;4926;42.670;23.316;2024-03-06T11:09:02;94364.66;;;18.49;30.49
9774;BME280;4926;42.670;23.316;2024-03-06T11:11:28;94368.66;;;17.90;31.67
9774;BME280;4926;42.670;23.316;2024-03-06T11:13:56;94355.63;;;17.70;31.80
9774;BME280;4926;42.670;23.316;2024-03-06T11:16:30;94352.31;;;17.58;32.35
9774;BME280;4926;42.670;23.316;2024-03-06T11:19:06;94349.50;;;17.17;31.55
9774;BME280;4926;42.670;23.316;2024-03-06T11:21:32;94347.34;;;16.74;32.46
9774;BME280;4926;42.670;23.316;2024-03-06T11:24:14;94343.13;;;16.22;34.66
9774;BME280;4926;42.670;23.316;2024-03-06T11:26:55;94330.72;;;16.01;34.86
9774;BME280;4926;42.670;23.316;2024-03-06T11:32:26;94327.09;;;15.47;35.66
9774;BME280;4926;42.670;23.316;2024-03-06T11:34:51;94328.44;;;15.58;36.34
9774;BME280;4926;42.670;23.316;2024-03-06T11:37:20;94319.09;;;15.74;36.25
9774;BME280;4926;42.670;23.316;2024-03-06T11:39:47;94323.72;;;16.00;35.34
9774;BME280;4926;42.670;23.316;2024-03-06T11:42:14;94321.28;;;16.26;34.46
9774;BME280;4926;42.670;23.316;2024-03-06T11:44:53;94314.72;;;16.42;34.56
9774;BME280;4926;42.670;23.316;2024-03-06T11:47:20;94313.03;;;16.63;34.07
9774;BME280;4926;42.670;23.316;2024-03-06T11:49:45;94314.44;;;16.62;33.35
9774;BME280;4926;42.670;23.316;2024-03-06T11:52:11;94315.66;;;16.76;33.13
9774;BME280;4926;42.670;23.316;2024-03-06T11:54:37;94308.97;;;16.50;33.19
9774;BME280;4926;42.670;23.316;2024-03-06T11:57:04;94308.28;;;16.50;33.81
9774;BME280;4926;42.670;23.316;2024-03-06T11:59:32;94294.09;;;17.01;32.79
9774;BME280;4926;42.670;23.316;2024-03-06T12:02:00;94300.28;;;17.51;32.18
9774;BME280;4926;42.670;23.316;2024-03-06T12:04:30;94297.88;;;18.02;31.58
9774;BME280;4926;42.670;23.316;2024-03-06T12:06:58;94301.44;;;18.67;30.24
9774;BME280;4926;42.670;23.316;2024-03-06T12:09:35;94299.22;;;19.29;28.29
9774;BME280;4926;42.670;23.316;2024-03-06T12:12:01;94290.47;;;19.66;28.14
9774;BME280;4926;42.670;23.316;2024-03-06T12:14:27;94289.19;;;19.88;28.07
9774;BME280;4926;42.670;23.316;2024-03-06T12:17:00;94300.22;;;19.98;26.95
9774;BME280;4926;42.670;23.316;2024-03-06T12:19:32;94297.63;;;19.90;27.07
9774;BME280;4926;42.670;23.316;2024-03-06T12:22:02;94286.72;;;19.49;27.50
9774;BME280;4926;42.670;23.316;2024-03-06T12:24:29;94285.44;;;19.15;27.33
9774;BME280;4926;42.670;23.316;2024-03-06T12:27:05;94284.56;;;18.94;28.12
9774;BME280;4926;42.670;23.316;2024-03-06T12:29:32;94277.13;;;18.80;27.93
9774;BME280;4926;42.670;23.316;2024-03-06T12:31:59;94276.38;;;18.20;28.07
9774;BME280;4926;42.670;23.316;2024-03-06T12:34:24;94265.13;;;18.18;28.64
9774;BME280;4926;42.670;23.316;2024-03-06T12:36:50;94264.06;;;18.00;29.37
9774;BME280;4926;42.670;23.316;2024-03-06T12:39:16;94264.41;;;17.84;28.89
9774;BME280;4926;42.670;23.316;2024-03-06T12:41:51;94264.28;;;17.16;29.94
9774;BME280;4926;42.670;23.316;2024-03-06T12:44:17;94280.75;;;16.99;30.44
9774;BME280;4926;42.670;23.316;2024-03-06T12:46:42;94262.50;;;16.51;35.41
9774;BME280;4926;42.670;23.316;2024-03-06T12:49:08;94271.63;;;15.45;37.80
9774;BME280;4926;42.670;23.316;2024-03-06T12:51:33;94274.50;;;14.68;41.13
9774;BME280;4926;42.670;23.316;2024-03-06T12:54:00;94275.41;;;14.32;41.62
9774;BME280;4926;42.670;23.316;2024-03-06T12:56:26;94275.63;;;13.97;43.73
9774;BME280;4926;42.670;23.316;2024-03-06T12:58:52;94279.34;;;13.49;44.35
9774;BME280;4926;42.670;23.316;2024-03-06T13:01:17;94268.94;;;13.23;44.79
9774;BME280;4926;42.670;23.316;2024-03-06T13:03:43;94269.63;;;13.11;45.03
9774;BME280;4926;42.670;23.316;2024-03-06T13:06:09;94273.16;;;12.94;45.79
9774;BME280;4926;42.670;23.316;2024-03-06T13:08:35;94273.88;;;12.78;45.32
9774;BME280;4926;42.670;23.316;2024-03-06T13:11:01;94275.97;;;13.04;45.75
9774;BME280;4926;42.670;23.316;2024-03-06T13:13:30;94282.94;;;13.27;44.88
9774;BME280;4926;42.670;23.316;2024-03-06T13:15:58;94285.69;;;13.43;44.64
9774;BME280;4926;42.670;23.316;2024-03-06T13:18:23;94275.19;;;13.46;44.40
9774;BME280;4926;42.670;23.316;2024-03-06T13:20:54;94287.06;;;13.48;43.93